Time;durP1;ratioP1;P1;durP2;ratioP2;P2;SDS_P1;SDS_P2;PMS_P1;PMS_P2;Temp;Humidity;BMP_temperature;BMP_pressure;BME280_temperature;BME280_humidity;BME280_pressure;Samples;Min_cycle;Max_cycle;Signal;HPM_P1;HPM_P2
2021/12/25 00:00:09;;;;;;;1.10;0.52;;;;;;;-0.95;61.63;100524.84;5050607;28;20401;-68
2021/12/25 00:02:35;;;;;;;2.67;0.60;;;;;;;-0.79;61.89;100525.59;5049563;28;20045;-68
2021/12/25 00:05:02;;;;;;;3.67;0.88;;;;;;;-0.71;61.34;100529.81;5049657;28;20067;-68
2021/12/25 00:07:29;;;;;;;2.75;1.05;;;;;;;-0.67;60.78;100531.47;5049650;28;20134;-68
2021/12/25 00:09:56;;;;;;;1.73;0.90;;;;;;;-0.56;59.88;100531.38;5049291;28;20083;-68
2021/12/25 00:12:23;;;;;;;2.70;0.77;;;;;;;-0.54;60.88;100538.22;5049921;28;20068;-68
2021/12/25 00:14:50;;;;;;;6.13;1.52;;;;;;;-0.51;60.50;100535.59;5047278;28;20064;-68
2021/12/25 00:17:16;;;;;;;1.55;0.68;;;;;;;-0.44;61.42;100538.97;5048812;28;20501;-68
2021/12/25 00:19:43;;;;;;;0.85;0.80;;;;;;;-0.33;60.88;100547.44;5049313;28;20114;-68
2021/12/25 00:22:09;;;;;;;1.05;0.80;;;;;;;-0.48;61.61;100547.56;5050491;28;20475;-68
2021/12/25 00:24:41;;;;;;;1.13;0.70;;;;;;;-0.33;60.86;100551.75;5049709;28;20041;-67
2021/12/25 00:27:22;;;;;;;1.85;0.60;;;;;;;-0.37;60.70;100547.50;5049963;28;20064;-67
2021/12/25 00:29:57;;;;;;;4.28;0.85;;;;;;;-0.34;60.26;100553.47;5037500;28;20045;-67
2021/12/25 00:32:42;;;;;;;2.03;0.52;;;;;;;-0.26;60.51;100559.38;5048941;28;20128;-67
2021/12/25 00:35:09;;;;;;;2.15;0.70;;;;;;;-0.29;60.21;100553.41;5050068;28;20121;-67
2021/12/25 00:37:35;;;;;;;0.63;0.50;;;;;;;-0.30;60.52;100556.88;5049120;28;20563;-67
2021/12/25 00:40:01;;;;;;;0.73;0.65;;;;;;;-0.29;60.99;100564.56;5048885;28;20497;-67
2021/12/25 00:42:28;;;;;;;0.60;0.60;;;;;;;-0.41;61.15;100556.97;5048154;28;20103;-67
2021/12/25 00:44:56;;;;;;;1.05;0.70;;;;;;;-0.48;61.78;100575.09;5048008;28;20130;-67
2021/12/25 00:47:22;;;;;;;0.50;0.50;;;;;;;-0.38;62.05;100580.13;5049258;28;20053;-67
2021/12/25 00:49:48;;;;;;;0.57;0.57;;;;;;;-0.32;61.25;100574.91;5049131;28;20068;-67
2021/12/25 00:52:15;;;;;;;0.50;0.50;;;;;;;-0.35;60.43;100581.81;5049310;28;20053;-67
2021/12/25 00:54:42;;;;;;;3.47;0.65;;;;;;;-0.32;61.19;100584.34;5049703;28;20045;-67
2021/12/25 00:57:09;;;;;;;0.55;0.55;;;;;;;-0.39;61.80;100587.84;5047820;28;20053;-67
2021/12/25 00:59:35;;;;;;;0.90;0.57;;;;;;;-0.33;61.49;100591.22;5048386;28;20071;-67
2021/12/25 01:02:04;;;;;;;0.60;0.50;;;;;;;-0.26;61.58;100612.66;5041319;28;20076;-67
2021/12/25 01:04:30;;;;;;;0.52;0.50;;;;;;;-0.45;61.06;100603.38;5049137;28;20053;-67
2021/12/25 01:06:57;;;;;;;2.30;0.65;;;;;;;-0.43;61.56;100599.91;5048544;28;20044;-67
2021/12/25 01:09:23;;;;;;;3.30;0.90;;;;;;;-0.28;61.38;100617.81;5048891;28;20080;-68
2021/12/25 01:11:51;;;;;;;1.42;0.70;;;;;;;-0.24;61.12;100624.66;5048996;28;20463;-67
2021/12/25 01:14:26;;;;;;;1.75;0.73;;;;;;;-0.31;61.86;100633.28;5042308;28;20045;-67
2021/12/25 01:17:13;;;;;;;0.68;0.68;;;;;;;-0.23;61.11;100631.50;5048883;28;20151;-67
2021/12/25 01:20:05;;;;;;;1.98;0.68;;;;;;;-0.39;60.49;100635.09;5049367;28;20052;-68
2021/12/25 01:23:13;;;;;;;1.08;0.60;;;;;;;-0.55;61.05;100634.34;5048576;28;20530;-69
2021/12/25 01:28:56;;;;;;;10.35;0.93;;;;;;;-0.59;61.19;100631.81;5039345;28;20051;-68
2021/12/25 01:31:25;;;;;;;0.50;0.50;;;;;;;-0.51;61.74;100635.19;5048025;28;20049;-67
2021/12/25 01:36:54;;;;;;;2.90;0.80;;;;;;;-0.73;61.29;100644.81;5047527;28;20467;-67
2021/12/25 01:39:27;;;;;;;1.27;0.80;;;;;;;-0.77;60.78;100640.53;5047767;28;20128;-67
2021/12/25 01:42:06;;;;;;;0.60;0.60;;;;;;;-0.74;61.63;100653.38;5046514;28;20045;-67
2021/12/25 01:50:02;;;;;;;0.75;0.60;;;;;;;-0.70;62.46;100659.41;5048101;28;20048;-67
2021/12/25 01:52:30;;;;;;;1.63;0.80;;;;;;;-1.02;62.82;100660.44;5048241;28;20088;-69
2021/12/25 01:55:00;;;;;;;0.90;0.90;;;;;;;-0.98;63.34;100656.13;5047979;28;20090;-67
2021/12/25 01:57:28;;;;;;;0.85;0.57;;;;;;;-0.88;63.77;100660.34;5047067;28;20045;-67
2021/12/25 01:59:54;;;;;;;0.77;0.50;;;;;;;-1.01;63.79;100653.59;5045839;28;20041;-67
2021/12/25 02:02:21;;;;;;;1.95;0.80;;;;;;;-0.96;64.32;100656.97;5048335;28;20095;-67
2021/12/25 02:04:48;;;;;;;0.85;0.50;;;;;;;-1.08;64.47;100670.78;5047413;28;20044;-67
2021/12/25 02:07:14;;;;;;;0.50;0.50;;;;;;;-1.21;64.91;100666.56;5047375;28;20083;-67
2021/12/25 02:09:42;;;;;;;1.95;0.63;;;;;;;-1.29;64.33;100662.31;5049122;28;20068;-67
2021/12/25 02:12:10;;;;;;;0.75;0.60;;;;;;;-1.34;65.08;100664.91;5048523;28;20040;-67
2021/12/25 02:14:41;;;;;;;1.08;0.70;;;;;;;-1.25;64.52;100669.13;5041723;28;20067;-67
2021/12/25 02:17:16;;;;;;;0.95;0.60;;;;;;;-1.45;65.03;100671.81;5039513;28;20049;-67
2021/12/25 02:19:50;;;;;;;0.60;0.60;;;;;;;-1.53;64.55;100673.56;5047102;28;20041;-67
2021/12/25 02:22:18;;;;;;;0.75;0.75;;;;;;;-1.45;64.69;100686.41;5048352;28;20088;-67
2021/12/25 02:24:44;;;;;;;2.40;0.80;;;;;;;-1.45;64.65;100665.81;5048289;28;20049;-67
2021/12/25 02:27:11;;;;;;;2.60;0.60;;;;;;;-1.41;64.45;100667.53;5048664;28;20072;-67
2021/12/25 02:29:38;;;;;;;4.72;0.80;;;;;;;-1.52;64.35;100667.56;5048654;28;20072;-68
2021/12/25 02:32:05;;;;;;;1.52;0.88;;;;;;;-1.57;64.89;100664.16;5048347;28;20049;-67
2021/12/25 02:34:32;;;;;;;1.60;0.70;;;;;;;-1.69;64.74;100677.03;5048334;28;20462;-67
2021/12/25 02:36:59;;;;;;;1.23;0.60;;;;;;;-1.80;65.17;100679.63;5047797;28;20409;-67
2021/12/25 02:39:26;;;;;;;2.78;0.70;;;;;;;-1.70;65.20;100681.31;5048452;28;20049;-67
2021/12/25 02:41:52;;;;;;;0.50;0.50;;;;;;;-1.72;64.54;100677.03;5050191;28;20086;-67
2021/12/25 02:44:19;;;;;;;1.67;0.60;;;;;;;-1.74;64.53;100671.06;5051411;28;20069;-67
2021/12/25 02:46:47;;;;;;;0.85;0.68;;;;;;;-1.91;65.06;100680.53;5044742;28;20080;-67
2021/12/25 02:49:14;;;;;;;1.45;0.70;;;;;;;-2.30;65.99;100687.44;5044077;28;20045;-67
2021/12/25 02:51:43;;;;;;;4.70;0.63;;;;;;;-2.28;66.21;100687.41;5037963;28;20110;-68
2021/12/25 02:54:11;;;;;;;0.60;0.60;;;;;;;-2.35;66.38;100684.00;5052071;28;20126;-67
2021/12/25 02:56:38;;;;;;;1.35;0.70;;;;;;;-2.39;65.57;100692.56;5051798;28;20416;-67
2021/12/25 02:59:04;;;;;;;0.73;0.60;;;;;;;-2.54;66.46;100695.97;5051498;28;20563;-67
2021/12/25 03:01:31;;;;;;;2.00;0.50;;;;;;;-2.60;66.29;100692.56;5050644;28;20073;-67
2021/12/25 03:03:57;;;;;;;0.75;0.70;;;;;;;-2.85;67.01;100696.81;5051540;28;20073;-67
2021/12/25 03:06:25;;;;;;;0.77;0.68;;;;;;;-2.77;66.84;100691.69;5051325;28;20521;-67
2021/12/25 03:08:52;;;;;;;2.83;0.75;;;;;;;-2.73;65.74;100703.66;5051330;28;20068;-67
2021/12/25 03:11:20;;;;;;;2.15;0.80;;;;;;;-2.85;65.35;100704.50;5051826;28;20094;-67
2021/12/25 03:13:57;;;;;;;3.72;1.05;;;;;;;-2.95;65.78;100703.63;5051619;28;20048;-67
2021/12/25 03:16:24;;;;;;;1.10;0.80;;;;;;;-3.00;65.34;100700.22;5048834;28;20049;-67
2021/12/25 03:18:53;;;;;;;1.80;0.80;;;;;;;-3.10;65.18;100695.88;5051875;28;20045;-67
2021/12/25 03:21:20;;;;;;;0.98;0.90;;;;;;;-3.18;66.02;100707.81;5051701;28;20041;-67
2021/12/25 03:23:48;;;;;;;0.80;0.80;;;;;;;-3.29;65.90;100698.41;5051620;28;20041;-67
2021/12/25 03:26:15;;;;;;;1.17;0.70;;;;;;;-3.27;65.98;100699.25;5051451;28;20111;-67
2021/12/25 03:28:44;;;;;;;3.35;0.80;;;;;;;-3.29;65.60;100703.53;5050992;28;20061;-67
2021/12/25 03:31:16;;;;;;;7.10;0.93;;;;;;;-3.32;65.40;100699.22;5050984;28;20037;-67
2021/12/25 03:33:45;;;;;;;2.03;0.93;;;;;;;-3.60;65.79;100705.94;5051374;28;20194;-67
2021/12/25 03:36:11;;;;;;;1.05;0.82;;;;;;;-3.75;66.67;100708.44;5050973;28;20098;-67
2021/12/25 03:38:38;;;;;;;1.55;0.77;;;;;;;-3.77;66.79;100710.09;5050271;28;20049;-67
2021/12/25 03:41:06;;;;;;;3.25;1.27;;;;;;;-3.70;66.25;100717.00;5051279;28;20044;-67
2021/12/25 03:43:34;;;;;;;3.92;0.90;;;;;;;-3.73;65.93;100706.72;5049314;28;20060;-67
2021/12/25 03:46:02;;;;;;;1.10;0.63;;;;;;;-3.83;66.54;100714.34;5050537;28;20734;-67
2021/12/25 03:48:46;;;;;;;2.13;1.00;;;;;;;-3.92;66.67;100714.31;5050598;28;20045;-67
2021/12/25 03:59:25;;;;;;;5.32;1.73;;;;;;;-3.96;67.18;100736.47;5050567;28;20095;-67
2021/12/25 04:01:56;;;;;;;3.67;1.50;;;;;;;-3.87;67.15;100735.66;5050487;28;20112;-67
2021/12/25 04:04:31;;;;;;;5.97;1.40;;;;;;;-3.82;66.98;100726.31;5050424;28;20044;-67
2021/12/25 04:07:02;;;;;;;3.25;1.33;;;;;;;-3.84;67.19;100739.09;5049017;28;20049;-67
2021/12/25 04:09:30;;;;;;;2.05;1.00;;;;;;;-3.75;67.40;100728.06;5050669;28;20045;-67
2021/12/25 04:12:00;;;;;;;0.80;0.80;;;;;;;-3.70;67.48;100746.91;5050375;28;20493;-67
2021/12/25 04:14:26;;;;;;;10.32;1.17;;;;;;;-3.67;66.37;100741.78;5050276;28;20045;-67
2021/12/25 04:16:54;;;;;;;5.35;1.48;;;;;;;-3.71;66.14;100750.31;5038360;28;20045;-67
2021/12/25 04:19:22;;;;;;;1.52;1.17;;;;;;;-3.70;65.60;100744.34;5030536;28;20460;-67
2021/12/25 04:21:53;;;;;;;5.43;1.17;;;;;;;-3.77;65.47;100751.09;5030331;28;20072;-67
2021/12/25 04:24:20;;;;;;;13.55;1.20;;;;;;;-3.87;66.06;100749.34;5035004;28;20045;-67
2021/12/25 04:26:47;;;;;;;1.55;0.90;;;;;;;-3.92;66.16;100747.59;5049263;28;20143;-67
2021/12/25 04:29:32;;;;;;;1.67;1.10;;;;;;;-3.89;66.10;100743.38;5040562;28;20436;-67
2021/12/25 04:32:27;;;;;;;2.88;1.15;;;;;;;-3.95;65.76;100733.91;5044071;28;20094;-67
2021/12/25 04:49:17;;;;;;;2.65;0.85;;;;;;;-4.40;67.11;100746.38;5049453;28;20273;-67
2021/12/25 05:02:47;;;;;;;4.40;0.93;;;;;;;-4.33;66.83;100770.31;5049178;28;20060;-67
2021/12/25 05:05:18;;;;;;;4.28;1.10;;;;;;;-4.49;67.04;100766.75;5048812;28;20059;-67
2021/12/25 05:07:44;;;;;;;;;;;;;;;-4.52;66.78;100764.19;5041704;28;20452;-67
2021/12/25 05:10:11;;;;;;;0.90;0.82;;;;;;;-4.53;67.03;100770.13;5049521;28;19943;-67
2021/12/25 05:12:37;;;;;;;1.70;1.02;;;;;;;-4.48;66.42;100766.78;5049456;28;20107;-67
2021/12/25 05:15:05;;;;;;;0.75;0.70;;;;;;;-4.59;66.95;100775.19;5045719;28;20114;-68
2021/12/25 05:17:31;;;;;;;2.70;0.85;;;;;;;-4.59;66.71;100768.38;5041151;28;20045;-67
2021/12/25 05:19:58;;;;;;;0.88;0.85;;;;;;;-4.59;66.43;100773.50;5029369;28;20041;-67
2021/12/25 05:22:26;;;;;;;1.02;0.77;;;;;;;-4.55;66.43;100780.38;5029430;28;20041;-67
2021/12/25 05:24:53;;;;;;;1.25;0.90;;;;;;;-4.56;66.03;100791.44;5029017;28;20068;-67
2021/12/25 05:27:19;;;;;;;1.63;1.08;;;;;;;-4.57;66.00;100789.72;5039556;28;20045;-67
2021/12/25 05:29:47;;;;;;;0.85;0.85;;;;;;;-4.69;65.78;100789.56;5048995;28;20049;-67
2021/12/25 05:32:13;;;;;;;1.38;1.38;;;;;;;-4.75;65.91;100789.53;5045607;28;20048;-67
2021/12/25 05:34:40;;;;;;;1.67;1.30;;;;;;;-4.70;65.21;100787.03;5048964;28;20424;-67
2021/12/25 05:37:06;;;;;;;0.98;0.98;;;;;;;-4.75;65.42;100789.53;5048511;28;20474;-67
2021/12/25 05:39:34;;;;;;;2.83;1.55;;;;;;;-4.83;65.54;100780.91;5049036;28;20056;-67
2021/12/25 05:42:00;;;;;;;0.90;0.90;;;;;;;-4.87;65.80;100783.41;5048499;28;20045;-67
2021/12/25 05:44:27;;;;;;;0.80;0.80;;;;;;;-4.81;65.30;100788.59;5048376;28;20048;-67
2021/12/25 05:46:54;;;;;;;1.88;0.90;;;;;;;-4.85;65.22;100787.72;5048195;28;20049;-67
2021/12/25 05:49:20;;;;;;;3.03;0.63;;;;;;;-4.96;65.09;100786.72;5047360;28;20488;-67
2021/12/25 05:51:47;;;;;;;4.60;1.10;;;;;;;-4.91;64.97;100785.94;5047741;28;20074;-67
2021/12/25 05:54:13;;;;;;;0.80;0.80;;;;;;;-4.93;64.74;100800.41;5049134;28;20045;-67
2021/12/25 05:56:41;;;;;;;1.83;0.82;;;;;;;-4.98;63.47;100806.28;5048219;28;20545;-67
2021/12/25 05:59:08;;;;;;;0.68;0.68;;;;;;;-5.10;63.96;100799.31;5048521;28;20503;-67
2021/12/25 06:01:34;;;;;;;1.27;0.90;;;;;;;-5.20;65.21;100809.44;5048133;28;20055;-67
2021/12/25 06:04:00;;;;;;;2.75;0.90;;;;;;;-5.24;65.41;100803.41;5048400;28;20068;-67
2021/12/25 06:06:27;;;;;;;7.97;1.20;;;;;;;-5.23;65.56;100809.38;5048547;28;20122;-67
2021/12/25 06:08:53;;;;;;;0.88;0.60;;;;;;;-5.23;65.90;100817.91;5048471;28;20104;-67
2021/12/25 06:11:20;;;;;;;2.90;1.00;;;;;;;-5.26;66.28;100825.56;5049027;28;20106;-67
2021/12/25 06:13:57;;;;;;;3.15;1.17;;;;;;;-5.23;66.69;100825.59;5048030;28;20047;-67
2021/12/25 06:16:23;;;;;;;0.73;0.70;;;;;;;-5.19;64.86;100829.03;5049624;28;20048;-67
2021/12/25 06:18:50;;;;;;;3.22;1.70;;;;;;;-5.25;65.06;100832.38;5042586;28;20065;-67
2021/12/25 06:21:16;;;;;;;2.63;0.77;;;;;;;-5.25;64.79;100832.38;5032860;28;20061;-67
2021/12/25 06:23:42;;;;;;;0.82;0.82;;;;;;;-5.22;64.93;100834.13;5033184;28;20042;-67
2021/12/25 06:26:09;;;;;;;1.00;0.85;;;;;;;-5.28;65.08;100836.59;5032401;28;20139;-67
2021/12/25 06:28:35;;;;;;;1.98;0.90;;;;;;;-5.23;64.42;100835.81;5032208;28;20563;-67
2021/12/25 06:31:03;;;;;;;1.25;1.15;;;;;;;-5.30;64.90;100839.13;5049159;28;20114;-67
2021/12/25 06:33:29;;;;;;;2.95;0.80;;;;;;;-5.31;64.83;100842.50;5051859;28;20114;-67
2021/12/25 06:35:55;;;;;;;1.20;1.20;;;;;;;-5.31;65.00;100837.41;5052220;28;20072;-67
2021/12/25 06:38:22;;;;;;;0.70;0.70;;;;;;;-5.31;65.58;100837.41;5052010;28;20072;-67
2021/12/25 06:40:48;;;;;;;1.88;0.90;;;;;;;-5.27;65.99;100848.53;5051979;28;20489;-67
2021/12/25 06:43:14;;;;;;;1.23;0.90;;;;;;;-5.20;65.96;100852.88;5052406;28;20044;-67
2021/12/25 06:45:41;;;;;;;0.90;0.90;;;;;;;-5.26;65.63;100848.56;5051690;28;20037;-67
2021/12/25 06:48:09;;;;;;;2.42;0.90;;;;;;;-5.18;65.74;100861.44;5050456;28;20053;-67
2021/12/25 06:50:35;;;;;;;0.70;0.70;;;;;;;-5.10;65.42;100857.28;5032520;28;20111;-67
2021/12/25 06:53:01;;;;;;;3.83;0.98;;;;;;;-5.18;64.87;100859.75;5045836;28;20503;-67
2021/12/25 06:55:28;;;;;;;3.83;1.20;;;;;;;-5.15;66.01;100862.34;5051715;28;20144;-67
2021/12/25 06:57:55;;;;;;;5.40;1.33;;;;;;;-5.27;66.01;100869.84;5051537;28;20118;-67
2021/12/25 07:00:22;;;;;;;4.22;0.93;;;;;;;-5.28;66.03;100864.72;5051195;28;20049;-67
2021/12/25 07:02:48;;;;;;;3.85;1.42;;;;;;;-5.27;66.32;100866.41;5051267;28;20065;-67
2021/12/25 07:05:16;;;;;;;2.15;1.73;;;;;;;-5.30;66.38;100864.69;5051979;28;20045;-67
2021/12/25 07:07:43;;;;;;;2.83;1.58;;;;;;;-5.35;66.28;100866.31;5043336;28;20067;-67
2021/12/25 07:10:10;;;;;;;3.60;1.67;;;;;;;-5.40;66.29;100867.94;5051503;28;20044;-67
2021/12/25 07:12:38;;;;;;;2.17;1.50;;;;;;;-5.32;65.12;100870.63;5051673;28;20041;-67
2021/12/25 07:15:05;;;;;;;9.25;2.03;;;;;;;-5.41;65.76;100868.78;5051623;28;20099;-67
2021/12/25 07:17:31;;;;;;;4.40;1.77;;;;;;;-5.40;66.12;100870.50;5050491;28;20420;-67
2021/12/25 07:19:58;;;;;;;2.03;1.52;;;;;;;-5.47;66.46;100866.97;5051315;28;20470;-67
2021/12/25 07:22:25;;;;;;;4.35;1.80;;;;;;;-5.48;66.64;100872.94;5051210;28;20099;-68
2021/12/25 07:24:52;;;;;;;2.63;1.88;;;;;;;-5.47;65.92;100861.88;5051344;28;20198;-68
2021/12/25 07:27:18;;;;;;;2.67;2.00;;;;;;;-5.44;66.36;100861.06;5050627;28;20064;-68
2021/12/25 07:29:44;;;;;;;4.57;2.28;;;;;;;-5.36;66.26;100863.75;5051410;28;20049;-68
2021/12/25 07:32:11;;;;;;;2.50;2.30;;;;;;;-5.36;66.42;100864.59;5045464;28;20037;-68
2021/12/25 07:34:37;;;;;;;6.43;2.28;;;;;;;-5.34;66.56;100862.06;5050347;28;20045;-68
2021/12/25 07:37:04;;;;;;;3.80;2.35;;;;;;;-5.32;66.32;100868.91;5050054;28;20126;-68
2021/12/25 07:39:32;;;;;;;7.97;2.45;;;;;;;-5.23;65.94;100876.72;5050667;28;20068;-68
2021/12/25 07:41:59;;;;;;;4.30;2.33;;;;;;;-5.22;65.06;100872.47;5050965;28;20546;-68
2021/12/25 07:44:25;;;;;;;7.32;2.60;;;;;;;-5.19;65.36;100873.34;5050584;28;20044;-68
2021/12/25 07:46:53;;;;;;;3.75;2.30;;;;;;;-5.17;65.07;100881.06;5050895;28;20463;-68
2021/12/25 07:49:20;;;;;;;3.15;2.72;;;;;;;-5.31;66.16;100883.41;5037505;28;20055;-68
2021/12/25 07:51:48;;;;;;;8.90;2.72;;;;;;;-5.15;66.30;100887.03;5030983;28;20509;-68
2021/12/25 07:54:15;;;;;;;5.45;2.83;;;;;;;-5.01;66.42;100888.94;5049578;28;20103;-68
2021/12/25 07:56:43;;;;;;;4.97;3.80;;;;;;;-5.00;66.11;100895.78;5048291;28;20061;-68
2021/12/25 07:59:09;;;;;;;8.98;2.80;;;;;;;-4.94;66.13;100897.56;5050535;28;20118;-68
2021/12/25 08:01:35;;;;;;;3.88;2.22;;;;;;;-4.99;65.82;100897.47;5050341;28;20048;-68
2021/12/25 08:04:02;;;;;;;2.60;1.95;;;;;;;-4.99;66.36;100899.22;5050283;28;20045;-68
2021/12/25 08:06:30;;;;;;;3.63;2.72;;;;;;;-4.86;65.94;100895.09;5050440;28;20118;-68
2021/12/25 08:08:59;;;;;;;3.63;2.20;;;;;;;-4.90;65.06;100899.31;5050230;28;20072;-68
2021/12/25 08:11:26;;;;;;;3.97;2.45;;;;;;;-4.91;65.17;100895.88;5049084;28;20049;-68
2021/12/25 08:13:54;;;;;;;8.77;2.83;;;;;;;-4.73;65.44;100902.94;5050428;28;20090;-69
2021/12/25 08:16:21;;;;;;;10.10;3.33;;;;;;;-4.77;66.26;100897.78;5050580;28;20068;-69
2021/12/25 08:18:47;;;;;;;9.93;3.38;;;;;;;-4.86;66.94;100903.63;5048812;28;20493;-69
2021/12/25 08:21:14;;;;;;;13.65;3.53;;;;;;;-4.66;67.05;100911.56;5050628;28;20045;-68
2021/12/25 08:23:41;;;;;;;17.80;5.43;;;;;;;-4.27;65.88;100908.59;5050570;28;20048;-68
2021/12/25 08:26:08;;;;;;;26.02;10.52;;;;;;;-4.45;67.12;100915.25;5049010;28;20559;-68
2021/12/25 08:28:34;;;;;;;35.85;13.30;;;;;;;-4.35;67.74;100907.66;5046231;28;20045;-69
2021/12/25 08:31:03;;;;;;;19.80;7.68;;;;;;;-4.34;67.60;100915.34;5047461;28;20502;-69
2021/12/25 08:33:29;;;;;;;27.85;8.75;;;;;;;-4.42;68.71;100915.28;5047487;28;20110;-69
2021/12/25 08:35:56;;;;;;;11.40;6.13;;;;;;;-4.29;67.93;100917.97;5047517;28;20045;-68
2021/12/25 08:38:22;;;;;;;8.60;4.63;;;;;;;-4.08;68.07;100916.50;5046434;28;20529;-69
2021/12/25 08:40:48;;;;;;;8.07;4.53;;;;;;;-3.99;67.95;100918.31;5046838;28;20565;-70
2021/12/25 08:43:16;;;;;;;9.05;3.70;;;;;;;-3.86;67.68;100914.16;5048018;28;20481;-71
2021/12/25 08:45:47;;;;;;;3.28;2.63;;;;;;;-3.87;67.54;100918.41;5048103;28;20045;-71
2021/12/25 08:48:18;;;;;;;4.82;3.05;;;;;;;-3.83;67.50;100926.97;5042639;28;20053;-69
2021/12/25 08:50:48;;;;;;;4.40;2.70;;;;;;;-3.72;67.66;100933.91;5048049;28;20122;-69
2021/12/25 08:53:14;;;;;;;3.83;2.67;;;;;;;-3.49;67.24;100929.00;5047706;28;20074;-69
2021/12/25 08:55:41;;;;;;;2.22;2.05;;;;;;;-3.57;67.24;100930.63;5047669;28;20094;-69
2021/12/25 08:58:07;;;;;;;4.72;2.38;;;;;;;-3.36;66.78;100925.66;5046411;28;20048;-69
2021/12/25 09:00:34;;;;;;;4.47;2.25;;;;;;;-3.05;66.37;100937.88;5046577;28;20571;-70
2021/12/25 09:03:00;;;;;;;2.10;1.75;;;;;;;-2.64;65.02;100927.84;5046676;28;20410;-69
2021/12/25 09:05:28;;;;;;;5.93;3.10;;;;;;;-2.69;64.26;100936.34;5039423;28;20060;-69
2021/12/25 09:07:55;;;;;;;10.38;3.00;;;;;;;-2.49;64.28;100934.75;5046447;28;20443;-69
2021/12/25 09:10:22;;;;;;;6.40;3.83;;;;;;;-2.56;63.81;100946.72;5046025;28;20060;-70
2021/12/25 09:12:50;;;;;;;11.60;3.35;;;;;;;-2.50;64.02;100933.88;5045989;28;20052;-70
2021/12/25 09:15:17;;;;;;;6.53;3.28;;;;;;;-2.46;63.82;100947.59;5047202;28;20077;-70
2021/12/25 09:17:43;;;;;;;5.13;3.67;;;;;;;-2.24;62.28;100949.41;5046748;28;20574;-70
2021/12/25 09:20:11;;;;;;;6.55;2.53;;;;;;;-2.11;62.66;100951.16;5044744;28;20443;-69
2021/12/25 09:22:39;;;;;;;5.22;2.33;;;;;;;-1.93;61.44;100940.06;5046488;28;20390;-69
2021/12/25 09:25:06;;;;;;;5.93;2.63;;;;;;;-1.54;60.67;100945.25;5045440;28;20501;-69
2021/12/25 09:27:32;;;;;;;6.47;2.85;;;;;;;-1.28;60.03;100954.69;5042298;28;20049;-69
2021/12/25 09:29:59;;;;;;;4.57;2.97;;;;;;;-1.14;58.89;100964.13;5043458;28;20084;-69
2021/12/25 09:32:26;;;;;;;5.43;2.75;;;;;;;-1.39;60.16;100967.56;5046022;28;20060;-69
2021/12/25 09:34:52;;;;;;;4.53;2.70;;;;;;;-1.43;59.63;100967.53;5046003;28;20040;-69
2021/12/25 09:37:20;;;;;;;3.17;2.20;;;;;;;-1.44;59.14;100968.44;5045656;28;20122;-69
2021/12/25 09:39:48;;;;;;;6.88;2.42;;;;;;;-1.39;59.67;100975.28;5031042;28;20513;-69
2021/12/25 09:42:14;;;;;;;4.28;2.03;;;;;;;-1.17;58.44;100977.00;5027062;28;20506;-70
2021/12/25 09:44:41;;;;;;;4.75;2.22;;;;;;;-1.07;58.26;100973.53;5033256;28;20122;-70
2021/12/25 09:47:07;;;;;;;4.88;2.80;;;;;;;-1.02;58.36;100989.84;5042961;28;20087;-70
2021/12/25 09:49:34;;;;;;;6.05;2.95;;;;;;;-0.93;58.71;100976.13;5041780;28;20072;-70
2021/12/25 09:52:00;;;;;;;4.65;2.70;;;;;;;-1.07;58.96;100978.69;5048019;28;20072;-70
2021/12/25 09:54:27;;;;;;;6.05;3.47;;;;;;;-0.91;58.61;100983.81;5047187;28;20559;-69
2021/12/25 09:56:56;;;;;;;7.85;3.05;;;;;;;-0.77;57.86;100980.38;5047063;28;20077;-70
2021/12/25 09:59:22;;;;;;;3.65;2.53;;;;;;;-0.52;57.63;100974.28;5048429;28;20045;-70
2021/12/25 10:01:52;;;;;;;4.05;3.50;;;;;;;-0.04;56.82;100973.25;5048367;28;20445;-70
2021/12/25 10:04:33;;;;;;;5.22;3.40;;;;;;;0.31;56.16;100970.47;5048621;28;20044;-70
2021/12/25 10:07:13;;;;;;;5.22;3.15;;;;;;;0.73;55.01;100976.22;5048090;28;20060;-69
2021/12/25 10:09:39;;;;;;;7.10;2.67;;;;;;;0.79;54.41;100969.28;5048771;28;20077;-69
2021/12/25 10:12:09;;;;;;;4.50;2.50;;;;;;;0.86;53.37;100968.34;5048612;28;20296;-69
2021/12/25 10:14:36;;;;;;;8.13;2.58;;;;;;;0.33;53.62;100979.06;5048466;28;20056;-69
2021/12/25 10:17:14;;;;;;;2.13;1.88;;;;;;;0.06;54.44;100979.22;5047936;28;20045;-69
2021/12/25 10:19:40;;;;;;;7.20;2.53;;;;;;;-0.19;55.37;100983.66;5044017;28;20114;-68
2021/12/25 10:22:11;;;;;;;4.15;2.30;;;;;;;-0.19;55.62;100977.63;5047606;28;20118;-69
2021/12/25 10:24:48;;;;;;;5.88;4.78;;;;;;;-0.44;56.55;100976.84;5048387;28;20057;-68
2021/12/25 10:27:20;;;;;;;9.98;7.43;;;;;;;-0.46;56.95;100982.88;5047868;28;20065;-68
2021/12/25 10:29:47;;;;;;;9.63;5.28;;;;;;;-0.79;57.67;100983.81;5041099;28;20041;-68
2021/12/25 10:32:19;;;;;;;5.68;3.72;;;;;;;-0.43;56.40;100978.56;5048533;28;20494;-71
2021/12/25 10:34:46;;;;;;;6.53;4.47;;;;;;;-0.52;56.73;100981.19;5041583;28;20047;-70
2021/12/25 10:37:14;;;;;;;8.32;3.53;;;;;;;-0.35;56.57;100971.69;5048544;28;20115;-70
2021/12/25 10:39:41;;;;;;;6.18;3.85;;;;;;;0.04;55.59;100962.91;5048352;28;20064;-70
2021/12/25 10:42:13;;;;;;;11.73;3.88;;;;;;;0.41;55.29;100963.53;5048478;28;20099;-71
2021/12/25 10:44:43;;;;;;;5.40;3.53;;;;;;;1.18;53.44;100968.06;5047874;28;20425;-70
2021/12/25 10:47:11;;;;;;;8.95;4.95;;;;;;;1.84;52.51;100960.44;5047731;28;20102;-69
2021/12/25 10:49:42;;;;;;;6.15;3.25;;;;;;;2.13;50.58;100957.44;5026227;28;20098;-69
2021/12/25 10:52:15;;;;;;;5.65;3.33;;;;;;;1.98;50.74;100950.75;5043115;28;20060;-69
2021/12/25 10:54:46;;;;;;;6.47;3.33;;;;;;;1.70;50.95;100958.00;5048049;28;20045;-69
2021/12/25 10:57:29;;;;;;;4.72;3.38;;;;;;;1.87;50.58;100958.66;5041437;28;20094;-69
2021/12/25 10:59:57;;;;;;;4.97;3.20;;;;;;;1.98;50.55;100952.47;5044011;28;20041;-69
2021/12/25 11:02:35;;;;;;;4.90;3.72;;;;;;;2.34;50.31;100955.41;5048340;28;20416;-69
2021/12/25 11:05:15;;;;;;;6.72;4.18;;;;;;;2.83;49.30;100952.06;5051258;28;20489;-70
2021/12/25 11:07:41;;;;;;;4.32;3.53;;;;;;;3.01;48.51;100946.56;5050900;28;20111;-70
2021/12/25 11:10:10;;;;;;;4.00;3.58;;;;;;;3.01;48.42;100951.75;5051318;28;20064;-70
2021/12/25 11:12:38;;;;;;;5.20;3.88;;;;;;;3.00;48.99;100954.34;5051191;28;20550;-69
2021/12/25 11:15:19;;;;;;;6.20;4.45;;;;;;;3.22;48.23;100950.50;5051872;28;20068;-69
2021/12/25 11:17:51;;;;;;;6.90;3.80;;;;;;;3.33;48.28;100945.97;5051077;28;20485;-69
2021/12/25 11:20:28;;;;;;;4.80;3.38;;;;;;;3.44;48.43;100944.03;5050854;28;20033;-69
2021/12/25 11:22:57;;;;;;;5.75;3.88;;;;;;;3.18;47.55;100939.31;5046010;28;20041;-69
2021/12/25 11:25:26;;;;;;;7.15;3.90;;;;;;;3.15;48.71;100935.94;5048798;28;20037;-69
2021/12/25 11:27:54;;;;;;;5.90;3.47;;;;;;;3.14;50.40;100932.50;5043623;28;20055;-69
2021/12/25 11:30:24;;;;;;;6.95;3.58;;;;;;;3.33;47.81;100933.88;5048328;28;20049;-69
2021/12/25 11:32:52;;;;;;;2.95;2.40;;;;;;;3.34;48.85;100938.16;5046099;28;20064;-69
2021/12/25 11:35:19;;;;;;;6.32;3.38;;;;;;;3.62;48.00;100941.06;5047439;28;20064;-69
2021/12/25 11:37:49;;;;;;;5.45;3.25;;;;;;;3.55;48.54;100939.47;5050520;28;20048;-69
2021/12/25 11:40:18;;;;;;;6.18;3.53;;;;;;;3.39;48.65;100940.69;5051275;28;20083;-70
2021/12/25 11:42:47;;;;;;;4.05;2.75;;;;;;;3.34;49.13;100938.16;5050601;28;20431;-69
2021/12/25 11:45:16;;;;;;;4.72;2.85;;;;;;;3.38;49.22;100934.66;5050868;28;20102;-69
2021/12/25 11:47:46;;;;;;;3.45;2.70;;;;;;;3.10;49.28;100945.56;5043209;28;20133;-69
2021/12/25 11:50:15;;;;;;;6.50;2.85;;;;;;;3.09;49.45;100939.50;5050811;28;20048;-69
2021/12/25 11:52:46;;;;;;;6.50;2.78;;;;;;;3.18;49.67;100941.09;5048241;28;20091;-69
2021/12/25 11:55:50;;;;;;;7.13;3.28;;;;;;;3.11;48.69;100947.25;5050547;28;20399;-68
2021/12/25 11:58:39;;;;;;;2.30;1.75;;;;;;;2.98;48.19;100945.75;5045308;28;20227;-68
2021/12/25 12:01:18;;;;;;;5.45;2.65;;;;;;;2.72;49.26;100938.44;5047055;28;20060;-68
2021/12/25 12:03:52;;;;;;;2.60;1.90;;;;;;;2.82;48.51;100946.03;5050216;28;20087;-68
2021/12/25 12:06:19;;;;;;;4.03;1.80;;;;;;;2.47;48.48;100955.22;5047756;28;20126;-68
2021/12/25 12:09:07;;;;;;;2.13;1.98;;;;;;;2.51;50.08;100949.13;5050592;28;20065;-68
2021/12/25 12:11:34;;;;;;;3.28;1.80;;;;;;;2.77;48.63;100954.75;5049939;28;20064;-68
2021/12/25 12:14:17;;;;;;;3.83;2.17;;;;;;;2.82;47.85;100942.56;5049922;28;20515;-68
2021/12/25 12:16:45;;;;;;;3.20;1.90;;;;;;;2.72;49.03;100931.53;5050045;28;20065;-68
2021/12/25 12:19:50;;;;;;;2.03;1.88;;;;;;;2.55;48.89;100932.69;5049289;28;20064;-68